sensor_id;sensor_type;location;lat;lon;timestamp;P1;durP1;ratioP1;P2;durP2;ratioP2
86011;SDS011;76591;42.170;27.850;2024-03-08T00:01:28;13.70;;;5.57;;
86011;SDS011;76591;42.170;27.850;2024-03-08T00:03:53;11.75;;;4.97;;
86011;SDS011;76591;42.170;27.850;2024-03-08T00:06:19;9.40;;;4.88;;
86011;SDS011;76591;42.170;27.850;2024-03-08T00:08:45;10.52;;;4.75;;
86011;SDS011;76591;42.170;27.850;2024-03-08T00:11:10;9.23;;;4.28;;
86011;SDS011;76591;42.170;27.850;2024-03-08T00:13:36;8.97;;;4.63;;
86011;SDS011;76591;42.170;27.850;2024-03-08T00:16:01;14.17;;;4.83;;
86011;SDS011;76591;42.170;27.850;2024-03-08T00:18:27;12.85;;;4.45;;
86011;SDS011;76591;42.170;27.850;2024-03-08T00:20:53;10.75;;;4.43;;
86011;SDS011;76591;42.170;27.850;2024-03-08T00:23:19;9.88;;;5.22;;
86011;SDS011;76591;42.170;27.850;2024-03-08T00:25:45;12.38;;;4.55;;
86011;SDS011;76591;42.170;27.850;2024-03-08T00:28:10;11.97;;;4.50;;
86011;SDS011;76591;42.170;27.850;2024-03-08T00:30:40;10.63;;;5.13;;
86011;SDS011;76591;42.170;27.850;2024-03-08T00:33:05;13.73;;;4.85;;
86011;SDS011;76591;42.170;27.850;2024-03-08T00:35:31;14.23;;;5.20;;
86011;SDS011;76591;42.170;27.850;2024-03-08T00:37:56;9.90;;;4.90;;
86011;SDS011;76591;42.170;27.850;2024-03-08T00:40:22;14.07;;;5.33;;
86011;SDS011;76591;42.170;27.850;2024-03-08T00:42:48;10.67;;;5.07;;
86011;SDS011;76591;42.170;27.850;2024-03-08T00:45:13;7.88;;;4.13;;
86011;SDS011;76591;42.170;27.850;2024-03-08T00:47:39;8.73;;;4.70;;
86011;SDS011;76591;42.170;27.850;2024-03-08T00:50:05;8.27;;;4.30;;
86011;SDS011;76591;42.170;27.850;2024-03-08T00:52:31;8.17;;;4.33;;
86011;SDS011;76591;42.170;27.850;2024-03-08T00:54:57;7.23;;;4.07;;
86011;SDS011;76591;42.170;27.850;2024-03-08T00:57:22;7.37;;;3.53;;
86011;SDS011;76591;42.170;27.850;2024-03-08T00:59:48;8.95;;;3.42;;
86011;SDS011;76591;42.170;27.850;2024-03-08T01:02:13;9.07;;;4.50;;
86011;SDS011;76591;42.170;27.850;2024-03-08T01:04:39;9.33;;;4.90;;
86011;SDS011;76591;42.170;27.850;2024-03-08T01:07:05;9.77;;;4.40;;
86011;SDS011;76591;42.170;27.850;2024-03-08T01:09:31;8.80;;;4.23;;
86011;SDS011;76591;42.170;27.850;2024-03-08T01:11:56;8.83;;;4.00;;
86011;SDS011;76591;42.170;27.850;2024-03-08T01:14:22;6.63;;;3.50;;
86011;SDS011;76591;42.170;27.850;2024-03-08T01:16:49;9.13;;;3.40;;
86011;SDS011;76591;42.170;27.850;2024-03-08T01:19:15;9.60;;;4.33;;
86011;SDS011;76591;42.170;27.850;2024-03-08T01:21:41;8.80;;;3.77;;
86011;SDS011;76591;42.170;27.850;2024-03-08T01:24:07;13.87;;;3.93;;
86011;SDS011;76591;42.170;27.850;2024-03-08T01:26:32;6.80;;;4.40;;
86011;SDS011;76591;42.170;27.850;2024-03-08T01:29:01;7.23;;;3.70;;
86011;SDS011;76591;42.170;27.850;2024-03-08T01:31:30;7.90;;;3.43;;
86011;SDS011;76591;42.170;27.850;2024-03-08T01:33:57;10.53;;;4.57;;
86011;SDS011;76591;42.170;27.850;2024-03-08T01:36:23;9.68;;;4.85;;
86011;SDS011;76591;42.170;27.850;2024-03-08T01:38:49;17.73;;;5.30;;
86011;SDS011;76591;42.170;27.850;2024-03-08T01:41:15;10.80;;;4.37;;
86011;SDS011;76591;42.170;27.850;2024-03-08T01:43:43;8.10;;;3.95;;
86011;SDS011;76591;42.170;27.850;2024-03-08T01:46:09;8.85;;;4.15;;
86011;SDS011;76591;42.170;27.850;2024-03-08T01:48:37;7.40;;;3.47;;
86011;SDS011;76591;42.170;27.850;2024-03-08T01:51:04;10.55;;;4.53;;
86011;SDS011;76591;42.170;27.850;2024-03-08T01:53:30;7.93;;;4.40;;
86011;SDS011;76591;42.170;27.850;2024-03-08T01:55:57;8.20;;;4.07;;
86011;SDS011;76591;42.170;27.850;2024-03-08T01:58:25;11.73;;;5.05;;
86011;SDS011;76591;42.170;27.850;2024-03-08T02:00:53;10.10;;;4.00;;
86011;SDS011;76591;42.170;27.850;2024-03-08T02:03:19;14.40;;;3.83;;
86011;SDS011;76591;42.170;27.850;2024-03-08T02:05:46;10.33;;;4.80;;
86011;SDS011;76591;42.170;27.850;2024-03-08T02:08:12;13.00;;;4.30;;
86011;SDS011;76591;42.170;27.850;2024-03-08T02:10:39;8.60;;;4.47;;
86011;SDS011;76591;42.170;27.850;2024-03-08T02:13:09;7.95;;;4.15;;
86011;SDS011;76591;42.170;27.850;2024-03-08T02:15:54;10.23;;;4.30;;
86011;SDS011;76591;42.170;27.850;2024-03-08T02:18:21;12.53;;;4.37;;
86011;SDS011;76591;42.170;27.850;2024-03-08T02:20:49;8.50;;;4.97;;
86011;SDS011;76591;42.170;27.850;2024-03-08T02:23:16;7.80;;;3.73;;
86011;SDS011;76591;42.170;27.850;2024-03-08T02:25:42;7.40;;;4.40;;
86011;SDS011;76591;42.170;27.850;2024-03-08T02:28:11;8.37;;;4.67;;
86011;SDS011;76591;42.170;27.850;2024-03-08T02:30:37;11.77;;;5.00;;
86011;SDS011;76591;42.170;27.850;2024-03-08T02:33:04;16.73;;;5.63;;
86011;SDS011;76591;42.170;27.850;2024-03-08T02:35:31;12.27;;;5.13;;
86011;SDS011;76591;42.170;27.850;2024-03-08T02:37:57;7.27;;;4.67;;
86011;SDS011;76591;42.170;27.850;2024-03-08T02:40:23;10.93;;;4.00;;
86011;SDS011;76591;42.170;27.850;2024-03-08T02:42:49;11.68;;;4.78;;
86011;SDS011;76591;42.170;27.850;2024-03-08T02:45:14;9.73;;;5.30;;
86011;SDS011;76591;42.170;27.850;2024-03-08T02:47:40;16.88;;;4.97;;
86011;SDS011;76591;42.170;27.850;2024-03-08T02:50:06;14.57;;;5.33;;
86011;SDS011;76591;42.170;27.850;2024-03-08T02:52:35;22.27;;;5.80;;
86011;SDS011;76591;42.170;27.850;2024-03-08T02:55:01;39.55;;;12.38;;
86011;SDS011;76591;42.170;27.850;2024-03-08T02:57:27;27.27;;;10.85;;
86011;SDS011;76591;42.170;27.850;2024-03-08T02:59:56;22.93;;;9.87;;
86011;SDS011;76591;42.170;27.850;2024-03-08T03:02:21;16.90;;;7.13;;
86011;SDS011;76591;42.170;27.850;2024-03-08T03:04:48;16.25;;;5.10;;
86011;SDS011;76591;42.170;27.850;2024-03-08T03:07:14;8.60;;;4.07;;
86011;SDS011;76591;42.170;27.850;2024-03-08T03:09:39;11.77;;;4.63;;
86011;SDS011;76591;42.170;27.850;2024-03-08T03:12:06;14.93;;;6.47;;
86011;SDS011;76591;42.170;27.850;2024-03-08T03:14:37;17.77;;;6.70;;
86011;SDS011;76591;42.170;27.850;2024-03-08T03:17:05;11.07;;;4.97;;
86011;SDS011;76591;42.170;27.850;2024-03-08T03:19:30;8.77;;;4.83;;
86011;SDS011;76591;42.170;27.850;2024-03-08T03:21:56;15.93;;;5.37;;
86011;SDS011;76591;42.170;27.850;2024-03-08T03:24:22;18.50;;;6.00;;
86011;SDS011;76591;42.170;27.850;2024-03-08T03:26:48;15.63;;;5.73;;
86011;SDS011;76591;42.170;27.850;2024-03-08T03:29:15;22.33;;;7.20;;
86011;SDS011;76591;42.170;27.850;2024-03-08T03:31:42;23.97;;;7.33;;
86011;SDS011;76591;42.170;27.850;2024-03-08T03:34:11;26.93;;;9.90;;
86011;SDS011;76591;42.170;27.850;2024-03-08T03:36:37;23.53;;;8.57;;
86011;SDS011;76591;42.170;27.850;2024-03-08T03:39:07;19.17;;;7.47;;
86011;SDS011;76591;42.170;27.850;2024-03-08T03:41:41;22.60;;;7.83;;
86011;SDS011;76591;42.170;27.850;2024-03-08T03:44:07;24.73;;;8.87;;
86011;SDS011;76591;42.170;27.850;2024-03-08T03:46:33;31.20;;;10.50;;
86011;SDS011;76591;42.170;27.850;2024-03-08T03:48:59;13.93;;;6.33;;
86011;SDS011;76591;42.170;27.850;2024-03-08T03:51:24;18.87;;;6.27;;
86011;SDS011;76591;42.170;27.850;2024-03-08T03:53:51;20.87;;;7.90;;
86011;SDS011;76591;42.170;27.850;2024-03-08T03:56:17;37.87;;;12.40;;
86011;SDS011;76591;42.170;27.850;2024-03-08T03:58:43;38.63;;;14.37;;
86011;SDS011;76591;42.170;27.850;2024-03-08T04:01:09;42.93;;;14.03;;
86011;SDS011;76591;42.170;27.850;2024-03-08T04:03:35;50.13;;;16.10;;
86011;SDS011;76591;42.170;27.850;2024-03-08T04:06:02;40.70;;;11.70;;
86011;SDS011;76591;42.170;27.850;2024-03-08T04:08:31;20.10;;;9.23;;
86011;SDS011;76591;42.170;27.850;2024-03-08T04:10:59;21.73;;;8.47;;
86011;SDS011;76591;42.170;27.850;2024-03-08T04:13:25;31.77;;;11.67;;
86011;SDS011;76591;42.170;27.850;2024-03-08T04:15:51;38.80;;;15.30;;
86011;SDS011;76591;42.170;27.850;2024-03-08T04:18:17;34.30;;;14.53;;
86011;SDS011;76591;42.170;27.850;2024-03-08T04:20:44;34.17;;;13.27;;
86011;SDS011;76591;42.170;27.850;2024-03-08T04:23:10;27.77;;;12.93;;
86011;SDS011;76591;42.170;27.850;2024-03-08T04:25:36;24.30;;;9.03;;
86011;SDS011;76591;42.170;27.850;2024-03-08T04:28:01;21.17;;;9.70;;
86011;SDS011;76591;42.170;27.850;2024-03-08T04:30:27;22.70;;;8.93;;
86011;SDS011;76591;42.170;27.850;2024-03-08T04:32:53;28.03;;;11.23;;
86011;SDS011;76591;42.170;27.850;2024-03-08T04:35:19;35.47;;;13.13;;
86011;SDS011;76591;42.170;27.850;2024-03-08T04:37:45;29.00;;;12.73;;
86011;SDS011;76591;42.170;27.850;2024-03-08T04:40:11;28.73;;;13.63;;
86011;SDS011;76591;42.170;27.850;2024-03-08T04:42:37;31.30;;;14.77;;
86011;SDS011;76591;42.170;27.850;2024-03-08T04:45:04;40.00;;;15.83;;
86011;SDS011;76591;42.170;27.850;2024-03-08T04:47:30;43.70;;;16.47;;
86011;SDS011;76591;42.170;27.850;2024-03-08T04:49:56;44.00;;;18.47;;
86011;SDS011;76591;42.170;27.850;2024-03-08T04:52:23;48.40;;;18.53;;
86011;SDS011;76591;42.170;27.850;2024-03-08T04:54:49;27.47;;;13.47;;
86011;SDS011;76591;42.170;27.850;2024-03-08T04:57:14;19.37;;;9.83;;
86011;SDS011;76591;42.170;27.850;2024-03-08T04:59:40;21.10;;;10.53;;
86011;SDS011;76591;42.170;27.850;2024-03-08T05:02:05;17.97;;;9.90;;
86011;SDS011;76591;42.170;27.850;2024-03-08T05:04:32;20.40;;;8.60;;
86011;SDS011;76591;42.170;27.850;2024-03-08T05:06:58;16.03;;;7.90;;
86011;SDS011;76591;42.170;27.850;2024-03-08T05:09:26;20.50;;;9.20;;
86011;SDS011;76591;42.170;27.850;2024-03-08T05:11:54;22.50;;;8.43;;
86011;SDS011;76591;42.170;27.850;2024-03-08T05:14:19;32.77;;;13.00;;
86011;SDS011;76591;42.170;27.850;2024-03-08T05:16:46;20.33;;;10.33;;
86011;SDS011;76591;42.170;27.850;2024-03-08T05:19:15;21.97;;;8.97;;
86011;SDS011;76591;42.170;27.850;2024-03-08T05:21:47;25.67;;;11.47;;
86011;SDS011;76591;42.170;27.850;2024-03-08T05:24:14;22.17;;;8.97;;
86011;SDS011;76591;42.170;27.850;2024-03-08T05:26:40;26.27;;;11.13;;
86011;SDS011;76591;42.170;27.850;2024-03-08T05:29:07;26.33;;;11.90;;
86011;SDS011;76591;42.170;27.850;2024-03-08T05:31:42;32.23;;;13.57;;
86011;SDS011;76591;42.170;27.850;2024-03-08T05:34:12;26.93;;;12.30;;
86011;SDS011;76591;42.170;27.850;2024-03-08T05:36:40;30.50;;;14.27;;
86011;SDS011;76591;42.170;27.850;2024-03-08T05:39:06;23.80;;;12.23;;
86011;SDS011;76591;42.170;27.850;2024-03-08T05:41:32;41.80;;;17.07;;
86011;SDS011;76591;42.170;27.850;2024-03-08T05:43:58;46.90;;;17.63;;
86011;SDS011;76591;42.170;27.850;2024-03-08T05:46:23;54.60;;;19.17;;
86011;SDS011;76591;42.170;27.850;2024-03-08T05:48:49;35.60;;;16.27;;
86011;SDS011;76591;42.170;27.850;2024-03-08T05:51:15;42.33;;;17.90;;
86011;SDS011;76591;42.170;27.850;2024-03-08T05:53:40;34.23;;;13.43;;
86011;SDS011;76591;42.170;27.850;2024-03-08T05:56:06;26.00;;;11.43;;
86011;SDS011;76591;42.170;27.850;2024-03-08T05:58:32;20.37;;;10.23;;
86011;SDS011;76591;42.170;27.850;2024-03-08T06:00:57;22.70;;;10.40;;
86011;SDS011;76591;42.170;27.850;2024-03-08T06:03:23;30.07;;;11.80;;
86011;SDS011;76591;42.170;27.850;2024-03-08T06:05:49;32.57;;;13.00;;
86011;SDS011;76591;42.170;27.850;2024-03-08T06:08:15;30.87;;;13.03;;
86011;SDS011;76591;42.170;27.850;2024-03-08T06:10:41;43.10;;;12.53;;
86011;SDS011;76591;42.170;27.850;2024-03-08T06:13:07;18.13;;;9.63;;
86011;SDS011;76591;42.170;27.850;2024-03-08T06:15:32;20.87;;;8.80;;
86011;SDS011;76591;42.170;27.850;2024-03-08T06:17:59;14.93;;;6.97;;
86011;SDS011;76591;42.170;27.850;2024-03-08T06:20:25;12.20;;;6.00;;
86011;SDS011;76591;42.170;27.850;2024-03-08T06:22:51;9.70;;;5.43;;
86011;SDS011;76591;42.170;27.850;2024-03-08T06:25:17;9.33;;;3.80;;
86011;SDS011;76591;42.170;27.850;2024-03-08T06:27:43;8.77;;;4.97;;
86011;SDS011;76591;42.170;27.850;2024-03-08T06:30:11;10.97;;;5.30;;
86011;SDS011;76591;42.170;27.850;2024-03-08T06:32:37;11.23;;;4.23;;
86011;SDS011;76591;42.170;27.850;2024-03-08T06:35:03;9.57;;;4.17;;
86011;SDS011;76591;42.170;27.850;2024-03-08T06:37:32;10.27;;;4.37;;
86011;SDS011;76591;42.170;27.850;2024-03-08T06:39:58;11.20;;;4.53;;
86011;SDS011;76591;42.170;27.850;2024-03-08T06:42:26;14.03;;;4.87;;
86011;SDS011;76591;42.170;27.850;2024-03-08T06:44:52;12.13;;;4.50;;
86011;SDS011;76591;42.170;27.850;2024-03-08T06:47:20;12.33;;;5.17;;
86011;SDS011;76591;42.170;27.850;2024-03-08T06:49:46;15.13;;;5.10;;
86011;SDS011;76591;42.170;27.850;2024-03-08T06:52:12;15.67;;;6.50;;
86011;SDS011;76591;42.170;27.850;2024-03-08T06:54:37;13.20;;;5.43;;
86011;SDS011;76591;42.170;27.850;2024-03-08T06:57:04;14.10;;;5.27;;
86011;SDS011;76591;42.170;27.850;2024-03-08T06:59:30;16.47;;;5.63;;
86011;SDS011;76591;42.170;27.850;2024-03-08T07:01:56;19.27;;;7.77;;
86011;SDS011;76591;42.170;27.850;2024-03-08T07:04:24;19.63;;;7.87;;
86011;SDS011;76591;42.170;27.850;2024-03-08T07:06:54;15.03;;;6.80;;
86011;SDS011;76591;42.170;27.850;2024-03-08T07:09:26;9.60;;;5.80;;
86011;SDS011;76591;42.170;27.850;2024-03-08T07:11:51;12.17;;;6.23;;
86011;SDS011;76591;42.170;27.850;2024-03-08T07:14:23;17.90;;;8.97;;
86011;SDS011;76591;42.170;27.850;2024-03-08T07:16:50;17.57;;;8.03;;
86011;SDS011;76591;42.170;27.850;2024-03-08T07:19:16;13.77;;;6.00;;
86011;SDS011;76591;42.170;27.850;2024-03-08T07:21:43;20.60;;;7.70;;
86011;SDS011;76591;42.170;27.850;2024-03-08T07:24:09;21.90;;;7.57;;
86011;SDS011;76591;42.170;27.850;2024-03-08T07:26:38;19.07;;;7.10;;
86011;SDS011;76591;42.170;27.850;2024-03-08T07:29:04;17.83;;;5.73;;
86011;SDS011;76591;42.170;27.850;2024-03-08T07:31:30;12.67;;;5.57;;
86011;SDS011;76591;42.170;27.850;2024-03-08T07:34:01;15.73;;;6.60;;
86011;SDS011;76591;42.170;27.850;2024-03-08T07:36:28;11.30;;;6.07;;
86011;SDS011;76591;42.170;27.850;2024-03-08T07:38:54;13.00;;;6.87;;
86011;SDS011;76591;42.170;27.850;2024-03-08T07:41:20;14.03;;;7.20;;
86011;SDS011;76591;42.170;27.850;2024-03-08T07:43:45;17.20;;;8.70;;
86011;SDS011;76591;42.170;27.850;2024-03-08T07:46:11;15.27;;;7.57;;
86011;SDS011;76591;42.170;27.850;2024-03-08T07:48:38;16.63;;;7.93;;
86011;SDS011;76591;42.170;27.850;2024-03-08T07:51:05;19.97;;;9.20;;
86011;SDS011;76591;42.170;27.850;2024-03-08T07:53:31;16.53;;;8.23;;
86011;SDS011;76591;42.170;27.850;2024-03-08T07:55:57;21.40;;;11.33;;
86011;SDS011;76591;42.170;27.850;2024-03-08T07:58:22;38.00;;;15.73;;
86011;SDS011;76591;42.170;27.850;2024-03-08T08:00:48;33.00;;;16.00;;
86011;SDS011;76591;42.170;27.850;2024-03-08T08:03:14;32.03;;;15.57;;
86011;SDS011;76591;42.170;27.850;2024-03-08T08:05:41;23.50;;;11.20;;
86011;SDS011;76591;42.170;27.850;2024-03-08T08:08:07;26.85;;;11.98;;
86011;SDS011;76591;42.170;27.850;2024-03-08T08:10:35;25.83;;;12.00;;
86011;SDS011;76591;42.170;27.850;2024-03-08T08:13:02;33.50;;;13.50;;
86011;SDS011;76591;42.170;27.850;2024-03-08T08:15:29;31.10;;;14.82;;
86011;SDS011;76591;42.170;27.850;2024-03-08T08:17:55;37.77;;;18.00;;
86011;SDS011;76591;42.170;27.850;2024-03-08T08:20:21;48.78;;;21.60;;
86011;SDS011;76591;42.170;27.850;2024-03-08T08:22:48;58.03;;;24.27;;
86011;SDS011;76591;42.170;27.850;2024-03-08T08:25:14;48.33;;;20.55;;
86011;SDS011;76591;42.170;27.850;2024-03-08T08:27:40;92.65;;;33.20;;
86011;SDS011;76591;42.170;27.850;2024-03-08T08:30:10;41.80;;;18.48;;
86011;SDS011;76591;42.170;27.850;2024-03-08T08:32:36;38.87;;;15.97;;
86011;SDS011;76591;42.170;27.850;2024-03-08T08:35:06;36.10;;;15.10;;
86011;SDS011;76591;42.170;27.850;2024-03-08T08:37:32;43.83;;;16.25;;
86011;SDS011;76591;42.170;27.850;2024-03-08T08:40:01;30.65;;;14.10;;
86011;SDS011;76591;42.170;27.850;2024-03-08T08:42:30;29.33;;;12.43;;
86011;SDS011;76591;42.170;27.850;2024-03-08T08:44:57;40.15;;;15.23;;
86011;SDS011;76591;42.170;27.850;2024-03-08T08:47:23;27.88;;;14.57;;
86011;SDS011;76591;42.170;27.850;2024-03-08T08:49:48;39.00;;;15.48;;
86011;SDS011;76591;42.170;27.850;2024-03-08T08:52:15;28.35;;;13.15;;
86011;SDS011;76591;42.170;27.850;2024-03-08T08:54:42;33.92;;;13.88;;
86011;SDS011;76591;42.170;27.850;2024-03-08T08:57:09;30.40;;;12.93;;
86011;SDS011;76591;42.170;27.850;2024-03-08T08:59:35;39.60;;;15.60;;
86011;SDS011;76591;42.170;27.850;2024-03-08T09:02:01;30.13;;;14.38;;
86011;SDS011;76591;42.170;27.850;2024-03-08T09:04:29;31.38;;;12.65;;
86011;SDS011;76591;42.170;27.850;2024-03-08T09:06:56;19.37;;;8.27;;
86011;SDS011;76591;42.170;27.850;2024-03-08T09:09:22;17.83;;;7.70;;
86011;SDS011;76591;42.170;27.850;2024-03-08T09:11:48;13.00;;;6.47;;
86011;SDS011;76591;42.170;27.850;2024-03-08T09:14:14;11.85;;;6.28;;
86011;SDS011;76591;42.170;27.850;2024-03-08T09:16:40;19.30;;;6.00;;
86011;SDS011;76591;42.170;27.850;2024-03-08T09:19:07;11.82;;;5.70;;
86011;SDS011;76591;42.170;27.850;2024-03-08T09:21:36;13.73;;;5.95;;
86011;SDS011;76591;42.170;27.850;2024-03-08T09:24:02;12.15;;;5.82;;
86011;SDS011;76591;42.170;27.850;2024-03-08T09:26:28;17.00;;;5.93;;
86011;SDS011;76591;42.170;27.850;2024-03-08T09:28:53;15.87;;;4.97;;
86011;SDS011;76591;42.170;27.850;2024-03-08T09:31:22;21.00;;;5.80;;
86011;SDS011;76591;42.170;27.850;2024-03-08T09:33:47;16.77;;;6.50;;
86011;SDS011;76591;42.170;27.850;2024-03-08T09:36:13;19.57;;;7.87;;
86011;SDS011;76591;42.170;27.850;2024-03-08T09:38:42;19.07;;;6.90;;
86011;SDS011;76591;42.170;27.850;2024-03-08T09:41:07;18.77;;;6.70;;
86011;SDS011;76591;42.170;27.850;2024-03-08T09:43:35;24.73;;;8.57;;
86011;SDS011;76591;42.170;27.850;2024-03-08T09:46:02;14.70;;;6.07;;
86011;SDS011;76591;42.170;27.850;2024-03-08T09:48:31;14.00;;;7.40;;
86011;SDS011;76591;42.170;27.850;2024-03-08T09:50:57;13.67;;;7.03;;
86011;SDS011;76591;42.170;27.850;2024-03-08T09:53:23;12.43;;;5.47;;
86011;SDS011;76591;42.170;27.850;2024-03-08T09:55:49;12.73;;;6.47;;
86011;SDS011;76591;42.170;27.850;2024-03-08T09:58:15;14.90;;;5.90;;
86011;SDS011;76591;42.170;27.850;2024-03-08T10:00:52;10.83;;;5.60;;
86011;SDS011;76591;42.170;27.850;2024-03-08T10:03:19;15.67;;;6.60;;
86011;SDS011;76591;42.170;27.850;2024-03-08T10:05:45;20.77;;;8.53;;
86011;SDS011;76591;42.170;27.850;2024-03-08T10:08:11;14.63;;;7.47;;
86011;SDS011;76591;42.170;27.850;2024-03-08T10:10:38;15.17;;;5.97;;
86011;SDS011;76591;42.170;27.850;2024-03-08T10:13:06;14.98;;;7.93;;
86011;SDS011;76591;42.170;27.850;2024-03-08T10:15:32;12.07;;;6.03;;
86011;SDS011;76591;42.170;27.850;2024-03-08T10:18:00;9.53;;;5.07;;
86011;SDS011;76591;42.170;27.850;2024-03-08T10:20:30;13.47;;;5.00;;
86011;SDS011;76591;42.170;27.850;2024-03-08T10:23:02;9.07;;;3.97;;
86011;SDS011;76591;42.170;27.850;2024-03-08T10:25:33;12.43;;;5.50;;
86011;SDS011;76591;42.170;27.850;2024-03-08T10:27:59;21.03;;;5.97;;
86011;SDS011;76591;42.170;27.850;2024-03-08T10:30:29;13.43;;;5.43;;
86011;SDS011;76591;42.170;27.850;2024-03-08T10:32:55;13.50;;;5.43;;
86011;SDS011;76591;42.170;27.850;2024-03-08T10:35:21;19.90;;;5.40;;
86011;SDS011;76591;42.170;27.850;2024-03-08T10:37:49;11.17;;;5.40;;
86011;SDS011;76591;42.170;27.850;2024-03-08T10:40:26;14.10;;;4.27;;
86011;SDS011;76591;42.170;27.850;2024-03-08T10:48:28;10.83;;;4.53;;
86011;SDS011;76591;42.170;27.850;2024-03-08T10:51:07;13.07;;;5.83;;
86011;SDS011;76591;42.170;27.850;2024-03-08T10:53:33;22.70;;;9.87;;
86011;SDS011;76591;42.170;27.850;2024-03-08T10:55:59;34.20;;;13.27;;
86011;SDS011;76591;42.170;27.850;2024-03-08T10:58:26;18.80;;;8.77;;
86011;SDS011;76591;42.170;27.850;2024-03-08T11:00:53;16.03;;;7.33;;
86011;SDS011;76591;42.170;27.850;2024-03-08T11:06:08;17.30;;;6.20;;
86011;SDS011;76591;42.170;27.850;2024-03-08T11:08:37;16.60;;;6.70;;
86011;SDS011;76591;42.170;27.850;2024-03-08T11:11:04;21.97;;;6.83;;
86011;SDS011;76591;42.170;27.850;2024-03-08T11:13:42;16.40;;;6.93;;
86011;SDS011;76591;42.170;27.850;2024-03-08T11:16:11;15.70;;;6.70;;
86011;SDS011;76591;42.170;27.850;2024-03-08T11:21:36;9.93;;;5.80;;
86011;SDS011;76591;42.170;27.850;2024-03-08T11:24:12;19.27;;;7.47;;
86011;SDS011;76591;42.170;27.850;2024-03-08T11:26:39;20.40;;;8.00;;
86011;SDS011;76591;42.170;27.850;2024-03-08T11:31:52;9.60;;;5.57;;
86011;SDS011;76591;42.170;27.850;2024-03-08T11:34:33;14.53;;;6.40;;
86011;SDS011;76591;42.170;27.850;2024-03-08T11:36:58;12.60;;;5.70;;
86011;SDS011;76591;42.170;27.850;2024-03-08T11:39:25;8.33;;;5.03;;
86011;SDS011;76591;42.170;27.850;2024-03-08T11:41:52;12.53;;;5.00;;
86011;SDS011;76591;42.170;27.850;2024-03-08T11:44:18;13.33;;;5.23;;
86011;SDS011;76591;42.170;27.850;2024-03-08T11:46:45;11.73;;;5.23;;
86011;SDS011;76591;42.170;27.850;2024-03-08T11:49:13;11.47;;;4.80;;
86011;SDS011;76591;42.170;27.850;2024-03-08T11:51:39;12.77;;;4.47;;
86011;SDS011;76591;42.170;27.850;2024-03-08T11:54:06;10.63;;;5.27;;
86011;SDS011;76591;42.170;27.850;2024-03-08T11:56:37;13.90;;;5.37;;
86011;SDS011;76591;42.170;27.850;2024-03-08T11:59:03;15.57;;;4.80;;
86011;SDS011;76591;42.170;27.850;2024-03-08T12:01:30;12.40;;;5.07;;
86011;SDS011;76591;42.170;27.850;2024-03-08T12:03:56;12.63;;;5.50;;
86011;SDS011;76591;42.170;27.850;2024-03-08T12:06:26;13.83;;;4.63;;
86011;SDS011;76591;42.170;27.850;2024-03-08T12:09:02;15.00;;;5.10;;
86011;SDS011;76591;42.170;27.850;2024-03-08T12:11:28;13.60;;;5.53;;
86011;SDS011;76591;42.170;27.850;2024-03-08T12:13:54;21.10;;;6.43;;
86011;SDS011;76591;42.170;27.850;2024-03-08T12:16:23;14.57;;;6.07;;
86011;SDS011;76591;42.170;27.850;2024-03-08T12:18:50;13.27;;;5.67;;
86011;SDS011;76591;42.170;27.850;2024-03-08T12:21:18;14.67;;;5.83;;
86011;SDS011;76591;42.170;27.850;2024-03-08T12:24:08;16.83;;;5.50;;
86011;SDS011;76591;42.170;27.850;2024-03-08T12:26:38;14.87;;;5.87;;
86011;SDS011;76591;42.170;27.850;2024-03-08T12:29:15;11.47;;;5.57;;
86011;SDS011;76591;42.170;27.850;2024-03-08T12:31:47;11.03;;;4.23;;
86011;SDS011;76591;42.170;27.850;2024-03-08T12:34:17;11.80;;;5.63;;
86011;SDS011;76591;42.170;27.850;2024-03-08T12:36:49;13.20;;;5.20;;
86011;SDS011;76591;42.170;27.850;2024-03-08T12:39:18;9.20;;;4.77;;
86011;SDS011;76591;42.170;27.850;2024-03-08T12:41:53;11.13;;;4.90;;
86011;SDS011;76591;42.170;27.850;2024-03-08T12:44:20;15.37;;;4.23;;
86011;SDS011;76591;42.170;27.850;2024-03-08T12:46:48;13.20;;;6.00;;
86011;SDS011;76591;42.170;27.850;2024-03-08T12:49:14;13.07;;;4.60;;
86011;SDS011;76591;42.170;27.850;2024-03-08T12:51:43;14.07;;;5.53;;
86011;SDS011;76591;42.170;27.850;2024-03-08T12:54:10;19.50;;;5.33;;
86011;SDS011;76591;42.170;27.850;2024-03-08T12:56:36;11.67;;;4.53;;
86011;SDS011;76591;42.170;27.850;2024-03-08T12:59:05;13.37;;;4.77;;
86011;SDS011;76591;42.170;27.850;2024-03-08T13:01:33;14.60;;;4.77;;
86011;SDS011;76591;42.170;27.850;2024-03-08T13:04:02;13.40;;;5.63;;
86011;SDS011;76591;42.170;27.850;2024-03-08T13:06:29;12.00;;;6.57;;
86011;SDS011;76591;42.170;27.850;2024-03-08T13:08:56;8.50;;;4.73;;
86011;SDS011;76591;42.170;27.850;2024-03-08T13:11:23;11.57;;;4.17;;
86011;SDS011;76591;42.170;27.850;2024-03-08T13:13:50;10.33;;;4.47;;
86011;SDS011;76591;42.170;27.850;2024-03-08T13:16:18;16.77;;;5.67;;
86011;SDS011;76591;42.170;27.850;2024-03-08T13:18:44;11.43;;;5.00;;
86011;SDS011;76591;42.170;27.850;2024-03-08T13:21:16;11.47;;;4.87;;
86011;SDS011;76591;42.170;27.850;2024-03-08T13:23:45;10.67;;;4.80;;
86011;SDS011;76591;42.170;27.850;2024-03-08T13:26:11;12.27;;;4.90;;
86011;SDS011;76591;42.170;27.850;2024-03-08T13:28:50;8.40;;;3.60;;
86011;SDS011;76591;42.170;27.850;2024-03-08T13:31:19;10.53;;;5.03;;
86011;SDS011;76591;42.170;27.850;2024-03-08T13:33:45;16.10;;;5.67;;
86011;SDS011;76591;42.170;27.850;2024-03-08T13:36:12;24.47;;;5.00;;
86011;SDS011;76591;42.170;27.850;2024-03-08T13:38:47;10.47;;;4.80;;
86011;SDS011;76591;42.170;27.850;2024-03-08T13:41:14;11.63;;;5.67;;
86011;SDS011;76591;42.170;27.850;2024-03-08T13:43:42;14.07;;;5.43;;
86011;SDS011;76591;42.170;27.850;2024-03-08T13:46:11;7.53;;;4.53;;
86011;SDS011;76591;42.170;27.850;2024-03-08T13:48:37;14.13;;;5.10;;
86011;SDS011;76591;42.170;27.850;2024-03-08T13:51:06;12.00;;;5.77;;
86011;SDS011;76591;42.170;27.850;2024-03-08T13:53:35;13.00;;;6.20;;
86011;SDS011;76591;42.170;27.850;2024-03-08T13:56:04;14.53;;;5.20;;
86011;SDS011;76591;42.170;27.850;2024-03-08T13:58:36;15.23;;;5.53;;
86011;SDS011;76591;42.170;27.850;2024-03-08T14:01:02;8.73;;;4.23;;
86011;SDS011;76591;42.170;27.850;2024-03-08T14:03:31;13.97;;;5.67;;
86011;SDS011;76591;42.170;27.850;2024-03-08T14:05:57;12.20;;;5.67;;
86011;SDS011;76591;42.170;27.850;2024-03-08T14:08:23;10.30;;;4.80;;
86011;SDS011;76591;42.170;27.850;2024-03-08T14:10:50;11.97;;;6.07;;
86011;SDS011;76591;42.170;27.850;2024-03-08T14:13:17;15.03;;;4.70;;
86011;SDS011;76591;42.170;27.850;2024-03-08T14:15:44;12.47;;;5.13;;
86011;SDS011;76591;42.170;27.850;2024-03-08T14:18:11;12.73;;;4.37;;
86011;SDS011;76591;42.170;27.850;2024-03-08T14:20:38;9.13;;;4.40;;
86011;SDS011;76591;42.170;27.850;2024-03-08T14:23:04;11.67;;;4.93;;
86011;SDS011;76591;42.170;27.850;2024-03-08T14:25:33;15.27;;;5.23;;
86011;SDS011;76591;42.170;27.850;2024-03-08T14:27:58;15.77;;;4.73;;
86011;SDS011;76591;42.170;27.850;2024-03-08T14:30:28;11.90;;;5.30;;
86011;SDS011;76591;42.170;27.850;2024-03-08T14:33:06;11.47;;;4.47;;
86011;SDS011;76591;42.170;27.850;2024-03-08T14:35:40;9.30;;;4.43;;